createdAt,value
2018-08-17T00:01:00.941Z,18.70
2018-08-17T00:03:30.474Z,18.70
2018-08-17T00:05:59.991Z,18.80
2018-08-17T00:08:29.394Z,18.80
2018-08-17T00:10:58.920Z,18.90
2018-08-17T00:13:28.366Z,19.00
2018-08-17T00:15:58.040Z,19.10
2018-08-17T00:18:27.524Z,19.10
2018-08-17T00:20:57.038Z,19.20
2018-08-17T00:23:26.652Z,19.20
2018-08-17T00:25:56.190Z,19.20
2018-08-17T00:28:25.949Z,19.10
2018-08-17T00:30:55.398Z,19.10
2018-08-17T00:33:25.916Z,19.10
2018-08-17T00:35:55.324Z,19.10
2018-08-17T00:38:25.774Z,19.10
2018-08-17T00:40:55.208Z,19.10
2018-08-17T00:43:24.726Z,19.00
2018-08-17T00:45:54.175Z,19.10
2018-08-17T00:48:23.912Z,19.10
2018-08-17T00:50:53.487Z,19.20
2018-08-17T00:53:22.937Z,19.20
2018-08-17T00:55:52.518Z,19.10
2018-08-17T00:58:21.992Z,19.10
2018-08-17T01:00:51.624Z,19.20
2018-08-17T01:03:21.323Z,19.20
2018-08-17T01:05:50.887Z,19.30
2018-08-17T01:08:21.739Z,19.40
2018-08-17T01:10:51.420Z,19.40
2018-08-17T01:13:21.053Z,19.30
2018-08-17T01:15:50.636Z,19.30
2018-08-17T01:18:20.162Z,19.40
2018-08-17T01:20:49.795Z,19.40
2018-08-17T01:23:19.374Z,19.50
2018-08-17T01:25:48.863Z,19.50
2018-08-17T01:28:18.286Z,19.60
2018-08-17T01:30:47.782Z,19.70
2018-08-17T01:33:17.355Z,19.70
2018-08-17T01:35:46.785Z,19.70
2018-08-17T01:38:16.391Z,19.60
2018-08-17T01:40:45.991Z,19.60
2018-08-17T01:43:15.706Z,19.50
2018-08-17T01:45:45.275Z,19.50
2018-08-17T01:48:14.823Z,19.50
2018-08-17T01:50:44.284Z,19.50
2018-08-17T01:53:13.929Z,19.50
2018-08-17T01:55:43.361Z,19.60
2018-08-17T01:58:12.991Z,19.70
2018-08-17T02:00:42.571Z,19.70
2018-08-17T02:03:12.224Z,19.70
2018-08-17T02:05:41.857Z,19.80
2018-08-17T02:08:11.471Z,19.80
2018-08-17T02:10:40.961Z,19.80
2018-08-17T02:13:10.547Z,19.90
2018-08-17T02:15:40.194Z,19.90
2018-08-17T02:18:10.172Z,20.00
2018-08-17T02:20:39.740Z,20.00
2018-08-17T02:23:09.262Z,20.00
2018-08-17T02:25:38.868Z,19.90
2018-08-17T02:28:08.474Z,19.90
2018-08-17T02:30:37.970Z,19.70
2018-08-17T02:33:07.655Z,19.70
2018-08-17T02:35:37.283Z,19.60
2018-08-17T02:38:06.750Z,19.70
2018-08-17T02:40:36.277Z,19.60
2018-08-17T02:43:05.959Z,19.60
2018-08-17T02:45:35.515Z,19.60
2018-08-17T02:48:05.020Z,19.70
2018-08-17T02:50:34.623Z,19.70
2018-08-17T02:53:04.166Z,19.80
2018-08-17T02:55:33.766Z,19.80
2018-08-17T02:58:03.337Z,19.70
2018-08-17T03:00:32.914Z,19.70
2018-08-17T03:03:02.516Z,19.60
2018-08-17T03:05:31.982Z,19.70
2018-08-17T03:08:01.610Z,19.60
2018-08-17T03:10:31.093Z,19.50
2018-08-17T03:13:00.667Z,19.60
2018-08-17T03:15:30.113Z,19.60
2018-08-17T03:17:59.598Z,19.60
2018-08-17T03:20:29.079Z,19.70
2018-08-17T03:22:58.640Z,19.90
2018-08-17T03:25:28.180Z,19.90
2018-08-17T03:27:57.590Z,19.90
2018-08-17T03:30:27.053Z,20.10
2018-08-17T03:32:56.473Z,20.10
2018-08-17T03:35:26.608Z,20.10
2018-08-17T03:37:56.092Z,20.10
2018-08-17T03:40:26.539Z,20.20
2018-08-17T03:42:56.097Z,20.20
2018-08-17T03:45:26.682Z,20.20
2018-08-17T03:47:56.306Z,20.10
2018-08-17T03:50:26.524Z,20.10
2018-08-17T03:52:55.949Z,20.00
2018-08-17T03:55:26.523Z,19.90
2018-08-17T03:57:56.111Z,19.70
2018-08-17T04:00:26.611Z,19.70
2018-08-17T04:02:56.093Z,19.50
2018-08-17T04:05:26.542Z,19.50
2018-08-17T04:07:56.076Z,19.40
2018-08-17T04:10:26.589Z,19.50
2018-08-17T04:12:56.101Z,19.40
2018-08-17T04:15:26.763Z,19.50
2018-08-17T04:17:56.326Z,19.50
2018-08-17T04:20:26.652Z,19.50
2018-08-17T04:22:56.108Z,19.50
2018-08-17T04:30:20.047Z,19.50
2018-08-17T04:32:49.617Z,19.40
2018-08-17T04:35:19.095Z,19.40
2018-08-17T04:37:48.594Z,19.30
2018-08-17T04:40:18.225Z,19.30
2018-08-17T04:42:47.759Z,19.30
2018-08-17T04:45:17.354Z,19.30
2018-08-17T04:47:46.843Z,19.10
2018-08-17T04:50:16.263Z,19.10
2018-08-17T04:52:45.831Z,19.20
2018-08-17T04:55:15.439Z,19.20
2018-08-17T04:57:45.043Z,19.20
2018-08-17T05:00:14.859Z,19.30
2018-08-17T05:02:44.347Z,19.50
2018-08-17T05:05:13.942Z,19.50
2018-08-17T05:07:43.654Z,19.60
2018-08-17T05:10:14.111Z,19.70
2018-08-17T05:12:43.686Z,19.90
2018-08-17T05:15:13.140Z,20.00
2018-08-17T05:17:42.600Z,20.00
2018-08-17T05:20:11.945Z,20.00
2018-08-17T05:22:41.473Z,20.10
2018-08-17T05:25:10.933Z,20.20
2018-08-17T05:27:40.416Z,20.20
2018-08-17T05:30:09.968Z,20.40
2018-08-17T05:32:39.352Z,20.40
2018-08-17T05:35:08.859Z,20.40
2018-08-17T05:37:38.422Z,20.30
2018-08-17T05:40:09.174Z,20.30
2018-08-17T05:42:38.787Z,20.40
2018-08-17T05:45:09.371Z,20.50
2018-08-17T05:47:38.918Z,20.50
2018-08-17T05:50:09.559Z,20.60
2018-08-17T05:52:39.120Z,20.70
2018-08-17T05:55:08.644Z,20.70
2018-08-17T05:57:38.118Z,20.70
2018-08-17T06:00:09.430Z,20.70
2018-08-17T06:07:35.074Z,20.70
2018-08-17T06:10:05.166Z,21.10
2018-08-17T06:12:34.761Z,21.40
2018-08-17T06:15:05.360Z,21.80
2018-08-17T06:17:34.879Z,22.20
2018-08-17T06:20:05.325Z,22.70
2018-08-17T06:22:34.922Z,23.20
2018-08-17T06:25:09.359Z,23.90
2018-08-17T06:27:39.189Z,24.30
2018-08-17T06:30:11.297Z,24.50
2018-08-17T06:32:41.355Z,24.60
2018-08-17T06:35:12.175Z,24.70
2018-08-17T06:37:42.551Z,24.70
2018-08-17T06:40:12.215Z,25.10
2018-08-17T06:42:41.789Z,25.80
2018-08-17T06:45:12.425Z,26.40
2018-08-17T06:47:41.991Z,27.00
2018-08-17T06:50:12.469Z,27.60
2018-08-17T06:52:42.648Z,28.10
2018-08-17T06:55:12.879Z,28.70
2018-08-17T06:57:42.426Z,29.10
2018-08-17T07:00:14.335Z,29.50
2018-08-17T07:02:44.982Z,30.00
2018-08-17T07:05:14.922Z,30.40
2018-08-17T07:07:44.319Z,30.70
2018-08-17T07:10:15.293Z,31.00
2018-08-17T07:12:44.890Z,30.80
2018-08-17T07:15:14.376Z,29.70
2018-08-17T07:17:43.932Z,29.00
2018-08-17T07:20:13.955Z,29.00
2018-08-17T07:22:43.507Z,28.20
2018-08-17T07:25:13.045Z,28.40
2018-08-17T07:27:42.689Z,28.40
2018-08-17T07:30:12.257Z,28.20
2018-08-17T07:32:41.798Z,28.00
2018-08-17T07:35:11.707Z,28.10
2018-08-17T07:37:41.222Z,28.20
2018-08-17T07:40:10.784Z,27.90
2018-08-17T07:42:40.354Z,27.70
2018-08-17T07:45:09.767Z,27.90
2018-08-17T07:47:39.171Z,28.20
2018-08-17T07:50:08.658Z,28.10
2018-08-17T07:52:38.098Z,28.40
2018-08-17T07:55:07.542Z,28.60
2018-08-17T07:57:36.917Z,29.10
2018-08-17T08:00:06.923Z,29.20
2018-08-17T08:02:37.246Z,29.60
2018-08-17T08:05:07.774Z,29.70
2018-08-17T08:12:31.957Z,29.00
2018-08-17T08:15:01.577Z,28.40
2018-08-17T08:17:30.982Z,28.20
2018-08-17T08:20:11.369Z,28.10
2018-08-17T08:22:40.826Z,28.10
2018-08-17T08:25:10.223Z,28.00
2018-08-17T08:27:39.632Z,27.70
2018-08-17T08:30:09.333Z,27.50
2018-08-17T08:32:38.815Z,27.00
2018-08-17T08:35:08.595Z,27.00
2018-08-17T08:37:38.038Z,27.40
2018-08-17T08:40:07.443Z,27.60
2018-08-17T08:42:36.956Z,27.70
2018-08-17T08:45:06.528Z,27.80
2018-08-17T08:47:36.097Z,27.80
2018-08-17T08:50:06.349Z,27.90
2018-08-17T08:52:35.816Z,28.00
2018-08-17T08:55:07.382Z,27.90
2018-08-17T08:57:37.156Z,27.90
2018-08-17T09:00:07.264Z,27.40
2018-08-17T09:02:36.951Z,26.70
2018-08-17T09:05:06.716Z,26.50
2018-08-17T09:07:36.215Z,26.40
2018-08-17T09:10:08.382Z,26.40
2018-08-17T09:12:37.968Z,26.40
2018-08-17T09:15:09.239Z,26.60
2018-08-17T09:17:38.779Z,26.70
2018-08-17T09:20:09.973Z,26.60
2018-08-17T09:22:39.627Z,26.50
2018-08-17T09:25:09.251Z,26.40
2018-08-17T09:27:38.850Z,26.40
2018-08-17T09:30:10.535Z,26.20
2018-08-17T09:32:40.402Z,26.20
2018-08-17T09:35:10.957Z,26.30
2018-08-17T09:37:40.600Z,26.20
2018-08-17T09:40:10.966Z,26.10
2018-08-17T09:42:40.363Z,26.20
2018-08-17T09:45:11.656Z,26.30
2018-08-17T09:47:41.078Z,26.20
2018-08-17T09:50:13.345Z,26.30
2018-08-17T09:52:42.883Z,26.40
2018-08-17T09:55:14.533Z,26.40
2018-08-17T09:57:43.978Z,26.40
2018-08-17T10:00:13.651Z,26.40
2018-08-17T10:02:48.405Z,26.40
2018-08-17T10:05:23.050Z,26.40
2018-08-17T10:07:57.878Z,26.30
2018-08-17T10:10:27.906Z,26.20
2018-08-17T10:12:57.433Z,26.10
2018-08-17T10:15:28.275Z,26.10
2018-08-17T10:17:57.771Z,26.10
2018-08-17T10:20:34.623Z,26.10
2018-08-17T10:23:13.506Z,26.10
2018-08-17T10:25:42.892Z,26.20
2018-08-17T10:28:12.279Z,26.30
2018-08-17T10:35:36.934Z,26.20
2018-08-17T10:38:07.258Z,26.30
2018-08-17T10:40:36.875Z,26.30
2018-08-17T10:43:06.895Z,26.40
2018-08-17T10:45:36.493Z,26.40
2018-08-17T10:48:06.071Z,26.40
2018-08-17T10:50:35.628Z,26.40
2018-08-17T10:53:05.682Z,26.60
2018-08-17T10:55:41.299Z,26.80
2018-08-17T10:58:13.464Z,26.80
2018-08-17T11:00:42.854Z,26.70
2018-08-17T11:03:12.315Z,26.70
2018-08-17T11:05:41.893Z,26.70
2018-08-17T11:08:11.296Z,26.80
2018-08-17T11:10:40.643Z,27.00
2018-08-17T11:13:10.167Z,27.00
2018-08-17T11:15:39.596Z,27.30
2018-08-17T11:18:08.984Z,27.30
2018-08-17T11:20:38.515Z,27.50
2018-08-17T11:23:08.023Z,27.50
2018-08-17T11:25:37.573Z,27.60
2018-08-17T11:28:07.096Z,27.70
2018-08-17T11:30:36.547Z,27.70
2018-08-17T11:33:06.059Z,27.80
2018-08-17T11:35:35.602Z,27.80
2018-08-17T11:38:05.502Z,27.80
2018-08-17T11:40:34.906Z,27.90
2018-08-17T11:43:04.259Z,27.80
2018-08-17T11:45:33.570Z,27.90
2018-08-17T11:48:02.943Z,27.90
2018-08-17T11:50:35.603Z,27.80
2018-08-17T11:53:05.134Z,27.70
2018-08-17T11:55:34.670Z,27.60
2018-08-17T11:58:04.087Z,27.60
2018-08-17T12:00:35.172Z,27.50
2018-08-17T12:03:06.759Z,27.50
2018-08-17T12:05:36.238Z,27.70
2018-08-17T12:08:05.852Z,27.80
2018-08-17T12:10:35.412Z,27.90
2018-08-17T12:13:10.155Z,28.00
2018-08-17T12:15:45.439Z,28.00
2018-08-17T12:18:14.814Z,28.10
2018-08-17T12:20:44.387Z,28.00
2018-08-17T12:23:13.786Z,28.00
2018-08-17T12:25:48.554Z,28.00
2018-08-17T12:28:17.879Z,28.00
2018-08-17T12:30:47.247Z,27.90
2018-08-17T12:33:16.591Z,27.80
2018-08-17T12:35:45.990Z,27.70
2018-08-17T12:38:16.675Z,27.70
2018-08-17T12:40:48.483Z,27.70
2018-08-17T12:43:20.010Z,27.60
2018-08-17T12:45:49.546Z,27.60
2018-08-17T12:48:19.072Z,27.70
2018-08-17T12:50:48.535Z,27.80
2018-08-17T12:53:18.075Z,27.90
2018-08-17T13:00:42.518Z,28.00
2018-08-17T13:03:11.922Z,28.20
2018-08-17T13:05:41.272Z,28.20
2018-08-17T13:08:10.639Z,28.20
2018-08-17T13:10:40.035Z,28.20
2018-08-17T13:13:10.676Z,28.30
2018-08-17T13:15:54.864Z,28.40
2018-08-17T13:18:24.775Z,28.30
2018-08-17T13:20:54.334Z,28.30
2018-08-17T13:23:25.166Z,28.10
2018-08-17T13:25:54.629Z,28.10
2018-08-17T13:28:24.098Z,28.20
2018-08-17T13:30:53.559Z,28.20
2018-08-17T13:33:23.047Z,28.30
2018-08-17T13:35:52.654Z,28.30
2018-08-17T13:38:22.196Z,28.30
2018-08-17T13:40:51.843Z,28.30
2018-08-17T13:43:21.218Z,28.30
2018-08-17T13:45:50.630Z,28.20
2018-08-17T13:48:20.043Z,28.20
2018-08-17T13:50:49.400Z,28.10
2018-08-17T13:53:18.778Z,28.10
2018-08-17T13:55:48.159Z,28.10
2018-08-17T14:00:39.995Z,28.10
2018-08-17T14:03:10.117Z,28.00
2018-08-17T14:05:39.599Z,27.80
2018-08-17T14:08:09.248Z,27.70
2018-08-17T14:10:38.807Z,27.60
2018-08-17T14:13:08.385Z,27.50
2018-08-17T14:15:38.024Z,27.40
2018-08-17T14:18:07.636Z,27.30
2018-08-17T14:20:37.190Z,27.30
2018-08-17T14:23:06.657Z,27.20
2018-08-17T14:25:36.034Z,27.20
2018-08-17T14:28:05.582Z,27.10
2018-08-17T14:30:36.297Z,27.00
2018-08-17T14:33:05.915Z,26.90
2018-08-17T14:35:35.353Z,26.80
2018-08-17T14:38:04.782Z,26.70
2018-08-17T14:40:34.147Z,26.60
2018-08-17T14:43:03.608Z,26.40
2018-08-17T14:45:33.032Z,26.50
2018-08-17T14:48:02.607Z,26.60
2018-08-17T14:50:32.048Z,26.70
2018-08-17T14:53:01.594Z,26.70
2018-08-17T14:55:31.103Z,26.80
2018-08-17T14:58:00.662Z,26.90
2018-08-17T15:00:30.095Z,26.90
2018-08-17T15:02:59.586Z,26.70
2018-08-17T15:05:29.044Z,26.50
2018-08-17T15:07:58.406Z,26.20
2018-08-17T15:10:28.845Z,26.00
2018-08-17T15:12:58.341Z,25.80
2018-08-17T15:15:29.207Z,25.80
2018-08-17T15:17:58.641Z,25.70
2018-08-17T15:20:28.931Z,25.60
2018-08-17T15:22:58.498Z,25.40
2018-08-17T15:25:29.031Z,25.10
2018-08-17T15:27:58.635Z,24.90
2018-08-17T15:30:28.965Z,24.70
2018-08-17T15:32:58.520Z,24.50
2018-08-17T15:35:28.888Z,24.50
2018-08-17T15:37:58.282Z,24.50
2018-08-17T15:40:27.674Z,24.50
2018-08-17T15:43:04.309Z,24.50
2018-08-17T15:45:33.678Z,24.40
2018-08-17T15:48:03.079Z,24.20
2018-08-17T15:50:32.410Z,24.10
2018-08-17T15:53:01.964Z,24.10
2018-08-17T15:55:31.330Z,24.00
2018-08-17T15:58:01.066Z,24.00
2018-08-17T16:00:30.574Z,24.00
2018-08-17T16:03:02.760Z,23.90
2018-08-17T16:05:32.233Z,23.80
2018-08-17T16:08:01.794Z,23.60
2018-08-17T16:10:31.345Z,23.50
2018-08-17T16:13:00.889Z,23.50
2018-08-17T16:15:30.427Z,23.40
2018-08-17T16:18:00.083Z,23.30
2018-08-17T16:20:29.974Z,23.20
2018-08-17T16:22:59.696Z,23.20
2018-08-17T16:25:29.298Z,23.10
2018-08-17T16:27:58.903Z,22.90
2018-08-17T16:30:29.472Z,22.80
2018-08-17T16:32:59.356Z,22.70
2018-08-17T16:35:29.519Z,22.70
2018-08-17T16:38:05.918Z,22.50
2018-08-17T16:40:40.748Z,22.30
2018-08-17T16:43:10.240Z,22.20
2018-08-17T16:45:39.627Z,22.10
2018-08-17T16:48:09.232Z,22.10
2018-08-17T16:50:39.434Z,22.10
2018-08-17T16:53:09.199Z,22.10
2018-08-17T16:55:38.606Z,22.00
2018-08-17T16:58:08.439Z,21.90
2018-08-17T17:00:38.073Z,21.80
2018-08-17T17:03:07.503Z,21.70
2018-08-17T17:05:36.954Z,21.70
2018-08-17T17:08:06.445Z,21.60
2018-08-17T17:10:35.798Z,21.50
2018-08-17T17:13:05.340Z,21.40
2018-08-17T17:15:34.819Z,21.40
2018-08-17T17:18:08.436Z,21.20
2018-08-17T17:20:39.003Z,21.10
2018-08-17T17:23:09.995Z,21.10
2018-08-17T17:25:39.781Z,21.10
2018-08-17T17:28:09.754Z,21.10
2018-08-17T17:30:44.966Z,21.10
2018-08-17T17:33:14.807Z,21.10
2018-08-17T17:35:44.810Z,21.10
2018-08-17T17:38:14.424Z,21.10
2018-08-17T17:40:43.986Z,21.00
2018-08-17T17:43:13.589Z,21.10
2018-08-17T17:45:43.203Z,21.00
2018-08-17T17:48:12.715Z,21.00
2018-08-17T17:50:42.104Z,21.00
2018-08-17T17:53:11.723Z,21.00
2018-08-17T17:55:49.152Z,20.90
2018-08-17T17:58:19.996Z,20.80
2018-08-17T18:01:00.411Z,20.60
2018-08-17T18:03:31.164Z,20.50
2018-08-17T18:06:01.834Z,20.50
2018-08-17T18:08:31.567Z,20.50
2018-08-17T18:11:01.033Z,20.50
2018-08-17T18:13:30.990Z,20.60
2018-08-17T18:16:00.693Z,20.60
2018-08-17T18:18:30.447Z,20.60
2018-08-17T18:20:59.978Z,20.70
2018-08-17T18:23:32.945Z,20.70
2018-08-17T18:26:02.674Z,20.60
2018-08-17T18:28:32.275Z,20.60
2018-08-17T18:31:01.724Z,20.50
2018-08-17T18:33:31.794Z,20.50
2018-08-17T18:36:01.187Z,20.50
2018-08-17T18:38:30.668Z,20.40
2018-08-17T18:41:00.215Z,20.40
2018-08-17T18:43:30.410Z,20.40
2018-08-17T18:45:59.955Z,20.40
2018-08-17T18:48:29.327Z,20.40
2018-08-17T18:50:59.701Z,20.40
2018-08-17T18:53:29.384Z,20.40
2018-08-17T18:55:59.625Z,20.40
2018-08-17T18:58:29.255Z,20.40
2018-08-17T19:00:59.796Z,20.40
2018-08-17T19:03:29.348Z,20.30
2018-08-17T19:05:59.614Z,20.30
2018-08-17T19:08:29.143Z,20.20
2018-08-17T19:10:59.680Z,20.20
2018-08-17T19:13:29.268Z,20.20
2018-08-17T19:15:59.767Z,20.20
2018-08-17T19:18:32.343Z,20.20
2018-08-17T19:21:07.504Z,20.20
2018-08-17T19:23:37.619Z,20.20
2018-08-17T19:26:08.368Z,20.20
2018-08-17T19:28:38.048Z,20.10
2018-08-17T19:31:07.776Z,20.10
2018-08-17T19:33:37.326Z,20.00
2018-08-17T19:36:06.862Z,19.90
2018-08-17T19:38:37.689Z,19.80
2018-08-17T19:41:07.368Z,19.80
2018-08-17T19:43:37.502Z,19.70
2018-08-17T19:46:07.110Z,19.60
2018-08-17T19:48:36.721Z,19.50
2018-08-17T19:51:11.500Z,19.40
2018-08-17T19:53:40.901Z,19.40
2018-08-17T19:56:10.355Z,19.40
2018-08-17T19:58:39.759Z,19.30
2018-08-17T20:01:09.152Z,19.20
2018-08-17T20:03:38.726Z,19.20
2018-08-17T20:06:08.175Z,19.20
2018-08-17T20:08:37.764Z,19.10
2018-08-17T20:11:07.163Z,19.10
2018-08-17T20:13:36.711Z,19.00
2018-08-17T20:16:14.301Z,18.90
2018-08-17T20:18:43.869Z,18.80
2018-08-17T20:21:13.391Z,18.80
2018-08-17T20:23:44.226Z,18.70
2018-08-17T20:26:14.955Z,18.70
2018-08-17T20:28:44.389Z,18.60
2018-08-17T20:31:13.842Z,18.60
2018-08-17T20:33:43.202Z,18.60
2018-08-17T20:36:21.610Z,18.60
2018-08-17T20:38:51.259Z,18.50
2018-08-17T20:41:20.699Z,18.50
2018-08-17T20:43:50.242Z,18.40
2018-08-17T20:46:19.651Z,18.40
2018-08-17T20:48:50.923Z,18.40
2018-08-17T20:51:25.397Z,18.30
2018-08-17T20:53:56.811Z,18.40
2018-08-17T21:01:24.382Z,18.30
2018-08-17T21:03:54.609Z,18.30
2018-08-17T21:06:24.009Z,18.40
2018-08-17T21:08:53.510Z,18.30
2018-08-17T21:11:22.905Z,18.30
2018-08-17T21:13:52.264Z,18.30
2018-08-17T21:16:21.594Z,18.20
2018-08-17T21:18:50.996Z,18.20
2018-08-17T21:21:20.482Z,18.20
2018-08-17T21:23:49.838Z,18.20
2018-08-17T21:26:19.377Z,18.20
2018-08-17T21:28:48.925Z,18.20
2018-08-17T21:31:18.957Z,18.20
2018-08-17T21:33:48.471Z,18.10
2018-08-17T21:36:18.209Z,18.00
2018-08-17T21:39:06.450Z,18.00
2018-08-17T21:41:35.850Z,18.00
2018-08-17T21:44:05.239Z,18.00
2018-08-17T21:46:34.826Z,18.00
2018-08-17T21:49:04.458Z,18.00
2018-08-17T21:51:34.742Z,17.90
2018-08-17T21:54:05.736Z,17.80
2018-08-17T21:56:35.090Z,17.80
2018-08-17T21:59:04.428Z,17.70
2018-08-17T22:01:33.854Z,17.70
2018-08-17T22:04:03.248Z,17.60
2018-08-17T22:06:32.650Z,17.40
2018-08-17T22:09:03.066Z,17.30
2018-08-17T22:11:35.926Z,17.30
2018-08-17T22:14:05.718Z,17.20
2018-08-17T22:16:35.239Z,17.10
2018-08-17T22:19:05.966Z,17.10
2018-08-17T22:21:35.253Z,17.00
2018-08-17T22:24:04.918Z,16.90
2018-08-17T22:26:34.179Z,16.90
2018-08-17T22:29:03.597Z,16.80
2018-08-17T22:31:38.562Z,16.70
2018-08-17T22:34:08.119Z,16.60
2018-08-17T22:36:37.666Z,16.50
2018-08-17T22:39:07.576Z,16.40
2018-08-17T22:41:36.959Z,16.30
2018-08-17T22:44:10.631Z,16.30
2018-08-17T22:46:39.977Z,16.20
2018-08-17T22:49:09.554Z,16.20
2018-08-17T22:51:39.004Z,16.10
2018-08-17T22:54:08.639Z,16.10
2018-08-17T22:56:37.964Z,16.00
2018-08-17T22:59:07.388Z,15.90
2018-08-17T23:01:36.720Z,15.90
2018-08-17T23:04:06.270Z,15.80
2018-08-17T23:06:35.746Z,15.70
2018-08-17T23:09:06.411Z,15.60
2018-08-17T23:11:37.306Z,15.60
2018-08-17T23:14:16.474Z,15.50
2018-08-17T23:16:46.805Z,15.30
2018-08-17T23:19:16.327Z,15.40
2018-08-17T23:21:45.667Z,15.40
2018-08-17T23:24:15.364Z,15.30
2018-08-17T23:26:44.742Z,15.30
2018-08-17T23:29:14.086Z,15.20
2018-08-17T23:31:43.586Z,15.10
2018-08-17T23:34:12.935Z,15.10
2018-08-17T23:36:42.327Z,15.10
2018-08-17T23:39:11.863Z,15.00
2018-08-17T23:41:41.239Z,15.00
2018-08-17T23:44:10.726Z,15.00
2018-08-17T23:46:40.246Z,14.90
2018-08-17T23:49:09.767Z,14.90
2018-08-17T23:51:39.206Z,14.90
2018-08-17T23:54:08.559Z,14.80
2018-08-17T23:56:38.102Z,14.70
2018-08-17T23:59:07.483Z,14.70
